createdAt,value
2018-07-19T00:00:47.395Z,3.87
2018-07-19T00:03:17.404Z,3.07
2018-07-19T00:05:51.213Z,4.10
2018-07-19T00:08:20.741Z,3.37
2018-07-19T00:10:51.547Z,3.67
2018-07-19T00:13:21.797Z,3.33
2018-07-19T00:15:58.453Z,3.73
2018-07-19T00:18:29.060Z,3.20
2018-07-19T00:21:05.000Z,3.73
2018-07-19T00:23:35.592Z,3.60
2018-07-19T00:26:05.522Z,4.13
2018-07-19T00:28:35.532Z,3.47
2018-07-19T00:31:04.775Z,4.17
2018-07-19T00:33:35.370Z,4.57
2018-07-19T00:36:05.144Z,3.57
2018-07-19T00:38:35.040Z,4.00
2018-07-19T00:41:07.900Z,4.20
2018-07-19T00:43:37.496Z,3.73
2018-07-19T00:46:13.150Z,3.57
2018-07-19T00:48:43.561Z,4.03
2018-07-19T00:51:14.102Z,3.73
2018-07-19T00:53:44.549Z,3.20
2018-07-19T00:56:18.044Z,3.87
2018-07-19T00:58:47.953Z,3.90
2018-07-19T01:01:18.633Z,4.37
2018-07-19T01:03:48.615Z,3.80
2018-07-19T01:06:21.788Z,3.73
2018-07-19T01:08:53.239Z,4.47
2018-07-19T01:11:24.086Z,4.33
2018-07-19T01:13:55.002Z,3.77
2018-07-19T01:16:25.320Z,4.43
2018-07-19T01:18:55.019Z,3.63
2018-07-19T01:21:27.672Z,3.50
2018-07-19T01:23:58.618Z,4.17
2018-07-19T01:26:30.145Z,4.13
2018-07-19T01:29:00.159Z,3.57
2018-07-19T01:31:31.598Z,3.73
2018-07-19T01:34:01.293Z,3.60
2018-07-19T01:36:34.055Z,4.10
2018-07-19T01:39:04.156Z,4.37
2018-07-19T01:42:44.658Z,4.23
2018-07-19T01:45:14.666Z,3.97
2018-07-19T01:47:45.239Z,3.53
2018-07-19T01:50:15.817Z,3.87
2018-07-19T01:52:45.277Z,3.87
2018-07-19T01:55:15.168Z,4.27
2018-07-19T01:57:44.163Z,4.07
2018-07-19T02:00:13.802Z,4.13
2018-07-19T02:02:47.767Z,5.13
2018-07-19T02:05:17.387Z,4.20
2018-07-19T02:07:50.947Z,4.37
2018-07-19T02:10:22.097Z,3.97
2018-07-19T02:12:53.075Z,4.07
2018-07-19T02:15:22.890Z,4.17
2018-07-19T02:17:55.253Z,4.23
2018-07-19T02:20:24.860Z,4.23
2018-07-19T02:22:57.740Z,4.83
2018-07-19T02:25:27.430Z,4.60
2018-07-19T02:28:04.083Z,4.93
2018-07-19T02:30:33.219Z,4.23
2018-07-19T02:33:02.894Z,4.53
2018-07-19T02:35:32.923Z,5.00
2018-07-19T02:38:10.044Z,4.47
2018-07-19T02:40:40.186Z,4.50
2018-07-19T02:43:09.760Z,4.23
2018-07-19T02:45:39.855Z,5.13
2018-07-19T02:48:13.031Z,4.67
2018-07-19T02:50:42.408Z,4.60
2018-07-19T02:53:19.273Z,4.87
2018-07-19T02:55:49.433Z,4.33
2018-07-19T02:58:19.293Z,4.17
2018-07-19T03:00:48.813Z,4.93
2018-07-19T03:03:20.293Z,5.33
2018-07-19T03:05:50.021Z,4.80
2018-07-19T03:08:22.887Z,4.93
2018-07-19T03:10:52.480Z,4.50
2018-07-19T03:13:25.143Z,4.23
2018-07-19T03:15:55.090Z,4.33
2018-07-19T03:18:28.263Z,4.50
2018-07-19T03:20:57.973Z,4.03
2018-07-19T03:23:28.556Z,3.97
2018-07-19T03:25:58.601Z,4.03
2018-07-19T03:28:30.945Z,4.20
2018-07-19T03:31:02.969Z,3.90
2018-07-19T03:33:33.412Z,4.73
2018-07-19T03:36:03.068Z,4.97
2018-07-19T03:38:36.187Z,4.77
2018-07-19T03:41:05.441Z,5.10
2018-07-19T03:43:38.974Z,4.43
2018-07-19T03:46:08.999Z,5.10
2018-07-19T03:48:40.560Z,4.87
2018-07-19T03:51:09.542Z,5.07
2018-07-19T03:53:43.100Z,5.73
2018-07-19T03:56:12.852Z,5.50
2018-07-19T03:58:46.985Z,5.60
2018-07-19T04:01:16.124Z,5.13
2018-07-19T04:03:49.093Z,5.83
2018-07-19T04:06:18.794Z,5.37
2018-07-19T04:08:51.086Z,5.83
2018-07-19T04:11:20.076Z,5.67
2018-07-19T04:13:57.004Z,4.90
2018-07-19T04:16:26.706Z,4.50
2018-07-19T04:18:57.202Z,4.43
2018-07-19T04:21:27.157Z,4.47
2018-07-19T04:24:04.206Z,4.63
2018-07-19T04:26:33.375Z,4.40
2018-07-19T04:29:04.725Z,4.60
2018-07-19T04:31:34.865Z,4.20
2018-07-19T04:34:11.664Z,5.20
2018-07-19T04:39:12.565Z,4.30
2018-07-19T04:41:42.230Z,5.00
2018-07-19T04:44:13.704Z,4.63
2018-07-19T04:46:44.200Z,4.63
2018-07-19T04:49:17.272Z,4.37
2018-07-19T04:51:46.781Z,4.47
2018-07-19T04:54:19.176Z,4.10
2018-07-19T04:56:49.556Z,4.60
2018-07-19T04:59:21.248Z,3.93
2018-07-19T05:01:51.103Z,5.20
2018-07-19T05:04:24.238Z,4.37
2018-07-19T05:06:54.299Z,4.87
2018-07-19T05:09:24.492Z,5.10
2018-07-19T05:11:54.544Z,4.90
2018-07-19T05:14:31.163Z,4.37
2018-07-19T05:17:00.774Z,4.77
2018-07-19T05:20:01.455Z,4.60
2018-07-19T05:22:31.236Z,4.80
2018-07-19T05:25:02.962Z,5.13
2018-07-19T05:27:35.597Z,4.30
2018-07-19T05:30:06.397Z,5.93
2018-07-19T05:32:35.911Z,5.40
2018-07-19T05:35:05.339Z,6.77
2018-07-19T05:37:37.946Z,7.43
2018-07-19T05:40:07.436Z,8.10
2018-07-19T05:42:45.097Z,8.83
2018-07-19T05:45:14.286Z,9.30
2018-07-19T05:47:44.215Z,9.63
2018-07-19T05:50:14.355Z,8.37
2018-07-19T05:52:47.294Z,7.47
2018-07-19T05:55:16.895Z,7.80
2018-07-19T05:57:48.663Z,6.93
2018-07-19T06:00:19.373Z,7.50
2018-07-19T06:02:57.545Z,7.63
2018-07-19T06:05:28.475Z,8.57
2018-07-19T06:07:58.100Z,9.30
2018-07-19T06:10:28.390Z,9.63
2018-07-19T06:12:57.925Z,8.43
2018-07-19T06:15:29.573Z,8.10
2018-07-19T06:18:01.168Z,7.33
2018-07-19T06:20:31.751Z,7.90
2018-07-19T06:23:02.547Z,8.97
2018-07-19T06:25:32.351Z,8.17
2018-07-19T06:28:04.547Z,8.27
2018-07-19T06:30:34.710Z,8.77
2018-07-19T06:33:09.881Z,8.90
2018-07-19T06:35:40.887Z,8.67
2018-07-19T06:38:11.842Z,8.67
2018-07-19T06:40:42.022Z,7.57
2018-07-19T06:43:14.674Z,9.17
2018-07-19T06:45:45.637Z,8.77
2018-07-19T06:48:17.036Z,8.83
2018-07-19T06:50:47.946Z,9.03
2018-07-19T06:53:20.261Z,8.80
2018-07-19T06:55:49.904Z,9.88
2018-07-19T06:58:20.973Z,8.77
2018-07-19T07:00:51.174Z,9.03
2018-07-19T07:03:23.594Z,8.00
2018-07-19T07:05:53.744Z,7.83
2018-07-19T07:08:27.133Z,8.80
2018-07-19T07:10:57.383Z,9.30
2018-07-19T07:13:29.719Z,8.67
2018-07-19T07:16:00.085Z,7.30
2018-07-19T07:18:29.240Z,8.13
2018-07-19T07:21:00.521Z,8.53
2018-07-19T07:23:36.751Z,9.23
2018-07-19T07:26:07.201Z,8.40
2018-07-19T07:28:42.941Z,9.97
2018-07-19T07:31:13.147Z,10.17
2018-07-19T07:33:43.917Z,9.20
2018-07-19T07:36:14.725Z,9.90
2018-07-19T07:38:45.142Z,8.73
2018-07-19T07:41:16.152Z,8.93
2018-07-19T07:43:46.780Z,8.90
2018-07-19T07:46:18.696Z,8.27
2018-07-19T07:48:48.580Z,8.37
2018-07-19T07:51:18.468Z,8.43
2018-07-19T07:53:48.666Z,9.03
2018-07-19T07:56:18.853Z,7.93
2018-07-19T07:58:50.626Z,8.27
2018-07-19T08:01:33.322Z,7.90
2018-07-19T08:04:07.955Z,8.23
2018-07-19T08:06:39.044Z,8.77
2018-07-19T08:09:31.003Z,7.90
2018-07-19T08:12:00.686Z,7.63
2018-07-19T08:14:42.487Z,6.50
2018-07-19T08:17:12.707Z,7.63
2018-07-19T08:19:44.110Z,8.23
2018-07-19T08:22:16.394Z,8.50
2018-07-19T08:24:47.133Z,7.37
2018-07-19T08:27:18.094Z,7.33
2018-07-19T08:29:50.217Z,8.10
2018-07-19T08:32:23.083Z,7.37
2018-07-19T08:34:52.925Z,8.07
2018-07-19T08:37:28.656Z,7.57
2018-07-19T08:40:23.021Z,8.87
2018-07-19T08:42:53.905Z,7.80
2018-07-19T08:45:24.571Z,7.40
2018-07-19T08:47:56.262Z,9.60
2018-07-19T08:50:27.356Z,8.57
2018-07-19T08:52:58.168Z,7.50
2018-07-19T08:55:28.796Z,7.17
2018-07-19T08:57:59.643Z,7.50
2018-07-19T09:00:30.215Z,8.33
2018-07-19T09:03:01.986Z,9.17
2018-07-19T09:05:35.537Z,9.30
2018-07-19T09:08:09.240Z,8.27
2018-07-19T09:10:40.297Z,7.73
2018-07-19T09:13:10.226Z,8.43
2018-07-19T09:15:41.616Z,8.50
2018-07-19T09:18:12.276Z,8.47
2018-07-19T09:20:46.363Z,8.97
2018-07-19T09:23:17.220Z,8.60
2018-07-19T09:25:50.172Z,9.10
2018-07-19T09:28:49.485Z,9.20
2018-07-19T09:32:01.425Z,8.43
2018-07-19T09:34:44.383Z,7.10
2018-07-19T09:41:01.974Z,5.37
2018-07-19T09:43:33.418Z,5.70
2018-07-19T09:46:04.125Z,5.80
2018-07-19T09:48:34.083Z,5.97
2018-07-19T09:51:05.311Z,5.63
2018-07-19T09:53:36.062Z,5.43
2018-07-19T09:56:08.054Z,5.63
2018-07-19T09:58:39.991Z,3.70
2018-07-19T10:01:15.339Z,6.63
2018-07-19T10:03:55.280Z,5.20
2018-07-19T10:06:25.557Z,6.10
2018-07-19T10:09:06.558Z,6.97
2018-07-19T10:11:37.670Z,5.50
2018-07-19T10:14:08.653Z,5.03
2018-07-19T10:16:40.725Z,4.60
2018-07-19T10:19:11.245Z,5.40
2018-07-19T10:21:42.413Z,5.17
2018-07-19T10:24:13.236Z,4.50
2018-07-19T10:26:43.614Z,4.97
2018-07-19T10:29:13.953Z,4.53
2018-07-19T10:31:46.280Z,4.60
2018-07-19T10:34:16.976Z,3.90
2018-07-19T10:36:47.624Z,5.50
2018-07-19T10:39:17.825Z,5.03
2018-07-19T10:41:53.153Z,6.13
2018-07-19T10:44:36.118Z,4.87
2018-07-19T10:49:43.397Z,6.23
2018-07-19T10:52:29.445Z,5.27
2018-07-19T10:55:01.696Z,5.30
2018-07-19T10:57:34.830Z,4.20
2018-07-19T11:00:23.588Z,4.43
2018-07-19T11:02:54.644Z,5.07
2018-07-19T11:05:30.441Z,4.37
2018-07-19T11:08:01.013Z,3.90
2018-07-19T11:10:34.838Z,4.13
2018-07-19T11:13:15.773Z,5.03
2018-07-19T11:15:47.680Z,4.87
2018-07-19T11:18:20.948Z,4.00
2018-07-19T11:20:51.732Z,4.60
2018-07-19T11:23:23.619Z,3.83
2018-07-19T11:25:56.477Z,4.77
2018-07-19T11:31:13.081Z,4.23
2018-07-19T11:33:43.644Z,3.50
2018-07-19T11:36:20.842Z,4.20
2018-07-19T11:38:55.574Z,3.67
2018-07-19T11:41:26.104Z,4.47
2018-07-19T11:43:58.668Z,4.07
2018-07-19T11:46:30.181Z,3.87
2018-07-19T11:49:01.033Z,4.30
2018-07-19T11:51:32.723Z,4.00
2018-07-19T11:54:03.220Z,3.10
2018-07-19T11:56:33.961Z,3.80
2018-07-19T11:59:04.402Z,3.80
2018-07-19T12:01:39.804Z,4.53
2018-07-19T12:04:10.618Z,3.67
2018-07-19T12:06:41.718Z,3.50
2018-07-19T12:09:13.725Z,4.00
2018-07-19T12:11:44.842Z,3.90
2018-07-19T12:14:24.013Z,4.27
2018-07-19T12:17:09.984Z,4.00
2018-07-19T12:19:41.766Z,3.67
2018-07-19T12:22:12.797Z,3.70
2018-07-19T12:24:43.924Z,3.57
2018-07-19T12:27:21.623Z,3.83
2018-07-19T12:29:53.121Z,3.00
2018-07-19T12:32:26.101Z,2.73
2018-07-19T12:34:56.605Z,3.50
2018-07-19T12:37:28.630Z,3.40
2018-07-19T12:40:00.319Z,3.33
2018-07-19T12:42:30.904Z,2.60
2018-07-19T12:45:02.052Z,3.10
2018-07-19T12:47:32.376Z,2.67
2018-07-19T12:50:04.538Z,3.10
2018-07-19T12:52:35.090Z,2.93
2018-07-19T12:55:04.949Z,3.70
2018-07-19T12:57:34.780Z,2.60
2018-07-19T13:00:05.653Z,3.63
2018-07-19T13:02:35.908Z,3.27
2018-07-19T13:05:08.089Z,3.67
2018-07-19T13:07:39.702Z,2.63
2018-07-19T13:10:10.026Z,3.77
2018-07-19T13:12:40.254Z,3.37
2018-07-19T13:15:10.726Z,3.23
2018-07-19T13:17:40.737Z,3.47
2018-07-19T13:20:10.919Z,2.80
2018-07-19T13:22:41.847Z,2.43
2018-07-19T13:25:12.677Z,3.63
2018-07-19T13:27:47.660Z,3.27
2018-07-19T13:30:19.328Z,3.20
2018-07-19T13:32:50.039Z,2.63
2018-07-19T13:35:20.742Z,3.03
2018-07-19T13:37:50.608Z,2.90
2018-07-19T13:40:22.878Z,3.67
2018-07-19T13:45:30.558Z,3.93
2018-07-19T13:48:00.569Z,3.40
2018-07-19T13:50:33.005Z,4.03
2018-07-19T13:53:16.092Z,3.63
2018-07-19T13:55:52.960Z,3.23
2018-07-19T13:58:24.378Z,3.67
2018-07-19T14:00:57.343Z,4.07
2018-07-19T14:03:28.087Z,3.43
2018-07-19T14:06:01.156Z,3.23
2018-07-19T14:08:33.229Z,2.97
2018-07-19T14:11:03.420Z,2.80
2018-07-19T14:13:34.272Z,3.30
2018-07-19T14:16:09.038Z,2.73
2018-07-19T14:18:40.871Z,3.33
2018-07-19T14:21:14.168Z,3.10
2018-07-19T14:23:48.134Z,3.20
2018-07-19T14:26:24.723Z,3.67
2018-07-19T14:31:45.739Z,3.47
2018-07-19T14:34:16.315Z,2.77
2018-07-19T14:36:46.293Z,3.27
2018-07-19T14:39:18.118Z,3.40
2018-07-19T14:41:47.767Z,4.17
2018-07-19T14:44:22.497Z,3.50
2018-07-19T14:46:55.096Z,3.73
2018-07-19T14:49:26.602Z,3.67
2018-07-19T14:51:56.410Z,3.23
2018-07-19T14:54:26.276Z,2.77
2018-07-19T14:56:57.578Z,3.07
2018-07-19T14:59:31.155Z,3.23
2018-07-19T15:02:02.169Z,3.73
2018-07-19T15:04:32.224Z,3.03
2018-07-19T15:07:04.088Z,3.37
2018-07-19T15:09:34.700Z,3.13
2018-07-19T15:12:05.288Z,4.17
2018-07-19T15:14:34.564Z,2.50
2018-07-19T15:17:04.169Z,2.23
2018-07-19T15:19:36.257Z,1.87
2018-07-19T15:22:06.996Z,2.10
2018-07-19T15:24:38.719Z,2.77
2018-07-19T15:27:09.516Z,2.37
2018-07-19T15:29:39.584Z,2.37
2018-07-19T15:32:09.593Z,2.53
2018-07-19T15:34:42.188Z,2.03
2018-07-19T15:37:11.570Z,1.93
2018-07-19T15:39:48.199Z,1.90
2018-07-19T15:42:17.966Z,2.53
2018-07-19T15:44:49.659Z,2.23
2018-07-19T15:47:18.619Z,2.37
2018-07-19T15:49:51.110Z,2.33
2018-07-19T15:52:20.948Z,2.43
2018-07-19T15:54:53.594Z,2.23
2018-07-19T15:57:27.429Z,1.83
2018-07-19T15:59:59.557Z,2.20
2018-07-19T16:02:30.659Z,2.20
2018-07-19T16:05:03.217Z,2.10
2018-07-19T16:07:31.980Z,2.27
2018-07-19T16:10:01.228Z,1.80
2018-07-19T16:12:30.711Z,2.20
2018-07-19T16:15:07.256Z,2.33
2018-07-19T16:17:36.698Z,3.13
2018-07-19T16:20:17.076Z,2.97
2018-07-19T16:22:46.462Z,2.80
2018-07-19T16:25:16.170Z,2.23
2018-07-19T16:27:46.583Z,2.37
2018-07-19T16:30:16.950Z,3.00
2018-07-19T16:32:46.963Z,3.37
2018-07-19T16:35:20.392Z,3.40
2018-07-19T16:37:53.071Z,2.87
2018-07-19T16:40:22.088Z,2.57
2018-07-19T16:42:56.664Z,2.80
2018-07-19T16:45:26.347Z,3.67
2018-07-19T16:47:57.156Z,3.03
2018-07-19T16:50:28.518Z,2.67
2018-07-19T16:52:58.366Z,2.40
2018-07-19T16:55:29.310Z,2.67
2018-07-19T16:57:59.569Z,2.83
2018-07-19T17:00:32.570Z,3.20
2018-07-19T17:03:05.737Z,2.67
2018-07-19T17:05:48.290Z,2.57
2018-07-19T17:08:42.737Z,2.13
2018-07-19T17:11:50.070Z,1.43
2018-07-19T17:14:52.499Z,1.87
2018-07-19T17:17:22.161Z,2.30
2018-07-19T17:19:52.868Z,2.70
2018-07-19T17:22:23.684Z,2.50
2018-07-19T17:24:53.504Z,2.70
2018-07-19T17:27:25.261Z,2.47
2018-07-19T17:29:54.858Z,2.40
2018-07-19T17:32:26.640Z,2.37
2018-07-19T17:34:57.677Z,2.70
2018-07-19T17:37:27.725Z,3.07
2018-07-19T17:39:57.203Z,2.70
2018-07-19T17:42:28.314Z,3.07
2018-07-19T17:44:58.955Z,3.00
2018-07-19T17:47:27.874Z,2.10
2018-07-19T17:49:57.904Z,2.30
2018-07-19T17:52:28.161Z,2.90
2018-07-19T17:54:57.185Z,2.20
2018-07-19T17:57:28.215Z,2.47
2018-07-19T17:59:59.570Z,2.80
2018-07-19T18:02:28.696Z,3.13
2018-07-19T18:05:02.076Z,2.30
2018-07-19T18:07:32.751Z,3.30
2018-07-19T18:10:13.104Z,2.40
2018-07-19T18:12:44.754Z,2.90
2018-07-19T18:15:14.420Z,3.40
2018-07-19T18:17:46.520Z,2.87
2018-07-19T18:20:17.268Z,2.90
2018-07-19T18:22:47.165Z,2.47
2018-07-19T18:25:18.423Z,2.33
2018-07-19T18:27:48.755Z,2.50
2018-07-19T18:30:18.381Z,2.57
2018-07-19T18:32:50.242Z,2.60
2018-07-19T18:35:22.512Z,2.47
2018-07-19T18:37:52.260Z,2.60
2018-07-19T18:40:22.688Z,2.50
2018-07-19T18:42:53.077Z,2.77
2018-07-19T18:45:23.746Z,2.53
2018-07-19T18:47:54.543Z,3.53
2018-07-19T18:50:26.783Z,2.90
2018-07-19T18:52:57.003Z,3.07
2018-07-19T18:55:26.783Z,2.87
2018-07-19T18:57:59.169Z,3.13
2018-07-19T19:00:31.096Z,2.73
2018-07-19T19:03:02.175Z,2.37
2018-07-19T19:05:34.072Z,3.23
2018-07-19T19:08:05.375Z,3.03
2018-07-19T19:10:38.650Z,2.97
2018-07-19T19:13:08.214Z,3.43
2018-07-19T19:15:38.704Z,2.57
2018-07-19T19:18:10.125Z,3.00
2018-07-19T19:20:40.438Z,2.73
2018-07-19T19:23:10.173Z,3.20
2018-07-19T19:25:46.983Z,3.27
2018-07-19T19:28:18.412Z,2.80
2018-07-19T19:30:48.908Z,3.27
2018-07-19T19:33:20.034Z,3.33
2018-07-19T19:35:51.732Z,2.63
2018-07-19T19:38:26.658Z,3.33
2018-07-19T19:40:55.981Z,3.30
2018-07-19T19:43:28.823Z,3.10
2018-07-19T19:45:58.676Z,3.80
2018-07-19T19:48:36.233Z,3.43
2018-07-19T19:51:07.687Z,3.97
2018-07-19T19:53:37.491Z,3.70
2018-07-19T19:56:06.898Z,3.60
2018-07-19T19:58:36.268Z,4.17
2018-07-19T20:01:05.456Z,3.27
2018-07-19T20:03:34.939Z,4.00
2018-07-19T20:06:05.741Z,3.47
2018-07-19T20:08:35.110Z,3.90
2018-07-19T20:11:08.663Z,3.73
2018-07-19T20:13:38.346Z,3.13
2018-07-19T20:16:10.565Z,3.20
2018-07-19T20:18:40.785Z,3.37
2018-07-19T20:21:14.425Z,3.30
2018-07-19T20:23:44.972Z,3.23
2018-07-19T20:26:22.201Z,3.77
2018-07-19T20:28:52.936Z,4.00
2018-07-19T20:31:24.592Z,4.07
2018-07-19T20:33:58.567Z,4.17
2018-07-19T20:36:27.982Z,4.13
2018-07-19T20:38:58.744Z,3.77
2018-07-19T20:41:28.517Z,5.17
2018-07-19T20:43:57.911Z,2.80
2018-07-19T20:46:28.159Z,4.73
2018-07-19T20:48:58.329Z,3.00
2018-07-19T20:51:28.267Z,3.40
2018-07-19T20:53:57.440Z,3.30
2018-07-19T20:56:28.432Z,3.10
2018-07-19T20:58:58.657Z,2.87
2018-07-19T21:01:35.240Z,3.77
2018-07-19T21:04:04.601Z,3.90
2018-07-19T21:06:34.177Z,3.23
2018-07-19T21:09:03.372Z,2.77
2018-07-19T21:11:37.986Z,3.40
2018-07-19T21:14:09.092Z,4.00
2018-07-19T21:16:41.927Z,3.40
2018-07-19T21:19:11.083Z,3.53
2018-07-19T21:21:41.634Z,3.43
2018-07-19T21:24:11.165Z,3.63
2018-07-19T21:26:46.702Z,3.63
2018-07-19T21:29:15.634Z,3.13
2018-07-19T21:31:54.683Z,3.27
2018-07-19T21:34:24.904Z,3.80
2018-07-19T21:36:54.657Z,3.90
2018-07-19T21:39:25.744Z,3.40
2018-07-19T21:41:59.868Z,3.87
2018-07-19T21:44:30.743Z,3.47
2018-07-19T21:47:02.248Z,3.33
2018-07-19T21:49:32.146Z,3.83
2018-07-19T21:52:02.696Z,3.27
2018-07-19T21:54:32.167Z,3.30
2018-07-19T21:57:06.909Z,3.47
2018-07-19T21:59:37.391Z,3.77
2018-07-19T22:02:13.047Z,3.27
2018-07-19T22:04:43.048Z,3.30
2018-07-19T22:07:15.903Z,3.27
2018-07-19T22:09:45.653Z,3.10
2018-07-19T22:12:22.505Z,2.87
2018-07-19T22:14:52.047Z,2.37
2018-07-19T22:17:21.187Z,3.20
2018-07-19T22:19:50.684Z,2.90
2018-07-19T22:22:27.120Z,2.80
2018-07-19T22:24:56.173Z,2.30
2018-07-19T22:27:29.215Z,3.30
2018-07-19T22:29:59.186Z,2.63
2018-07-19T22:32:36.705Z,2.63
2018-07-19T22:35:06.687Z,2.23
2018-07-19T22:37:36.692Z,2.23
2018-07-19T22:40:07.459Z,2.37
2018-07-19T22:42:38.606Z,1.90
2018-07-19T22:45:09.345Z,2.03
2018-07-19T22:47:42.572Z,1.70
2018-07-19T22:50:14.589Z,1.60
2018-07-19T22:52:45.522Z,1.80
2018-07-19T22:55:14.857Z,2.13
2018-07-19T22:57:52.508Z,1.80
2018-07-19T23:00:21.668Z,1.77
2018-07-19T23:02:54.432Z,2.30
2018-07-19T23:05:23.417Z,2.10
2018-07-19T23:07:56.753Z,1.93
2018-07-19T23:10:25.545Z,1.23
2018-07-19T23:12:59.995Z,1.63
2018-07-19T23:15:29.157Z,1.30
2018-07-19T23:18:06.170Z,1.53
2018-07-19T23:20:35.176Z,1.60
2018-07-19T23:23:07.403Z,1.30
2018-07-19T23:25:37.276Z,1.53
2018-07-19T23:28:16.286Z,1.67
2018-07-19T23:30:45.014Z,1.50
2018-07-19T23:33:15.417Z,1.60
2018-07-19T23:35:48.850Z,1.43
2018-07-19T23:38:21.792Z,1.07
2018-07-19T23:40:52.242Z,1.10
2018-07-19T23:43:25.827Z,1.00
2018-07-19T23:46:05.149Z,1.30
2018-07-19T23:48:34.152Z,1.83
2018-07-19T23:51:03.008Z,1.00
2018-07-19T23:53:31.883Z,1.90
2018-07-19T23:56:01.709Z,1.03
2018-07-19T23:58:30.636Z,1.53
